createdAt,value
2019-03-26T00:00:25.366Z,12.33
2019-03-26T00:02:56.605Z,13.17
2019-03-26T00:05:27.769Z,11.87
2019-03-26T00:07:58.918Z,12.07
2019-03-26T00:10:30.084Z,11.50
2019-03-26T00:13:01.234Z,12.00
2019-03-26T00:15:32.402Z,19.30
2019-03-26T00:18:03.557Z,13.30
2019-03-26T00:20:34.655Z,11.43
2019-03-26T00:23:05.903Z,12.17
2019-03-26T00:25:38.140Z,12.10
2019-03-26T00:28:09.236Z,11.40
2019-03-26T00:30:40.380Z,12.07
2019-03-26T00:33:11.535Z,11.67
2019-03-26T00:35:42.701Z,11.83
2019-03-26T00:38:13.837Z,11.80
2019-03-26T00:40:44.941Z,11.73
2019-03-26T00:43:16.021Z,11.73
2019-03-26T00:45:47.193Z,10.93
2019-03-26T00:48:18.358Z,12.07
2019-03-26T00:50:49.508Z,12.30
2019-03-26T00:53:20.722Z,12.40
2019-03-26T00:55:51.898Z,12.10
2019-03-26T00:58:23.057Z,10.77
2019-03-26T01:00:54.314Z,12.77
2019-03-26T01:03:25.522Z,10.93
2019-03-26T01:05:56.689Z,10.87
2019-03-26T01:08:27.828Z,10.50
2019-03-26T01:10:58.981Z,12.00
2019-03-26T01:13:30.134Z,10.83
2019-03-26T01:16:01.228Z,11.07
2019-03-26T01:18:32.375Z,9.70
2019-03-26T01:21:03.606Z,10.10
2019-03-26T01:23:34.749Z,11.27
2019-03-26T01:26:05.922Z,10.00
2019-03-26T01:28:37.062Z,11.43
2019-03-26T01:31:08.225Z,10.53
2019-03-26T01:33:39.293Z,10.77
2019-03-26T01:36:10.377Z,11.00
2019-03-26T01:38:41.529Z,11.10
2019-03-26T01:41:12.604Z,12.13
2019-03-26T01:43:44.743Z,11.60
2019-03-26T01:46:15.908Z,10.67
2019-03-26T01:48:47.053Z,11.47
2019-03-26T01:51:18.209Z,11.47
2019-03-26T01:53:49.271Z,11.40
2019-03-26T01:56:20.437Z,11.50
2019-03-26T01:58:51.505Z,11.10
2019-03-26T02:01:22.773Z,12.17
2019-03-26T02:03:53.920Z,12.10
2019-03-26T02:06:25.018Z,11.97
2019-03-26T02:08:56.165Z,11.80
2019-03-26T02:11:27.245Z,11.20
2019-03-26T02:13:58.309Z,11.37
2019-03-26T02:16:29.409Z,10.93
2019-03-26T02:19:00.558Z,12.13
2019-03-26T02:21:31.639Z,12.67
2019-03-26T02:24:02.795Z,12.97
2019-03-26T02:26:33.953Z,12.50
2019-03-26T02:29:05.105Z,13.30
2019-03-26T02:31:36.197Z,12.90
2019-03-26T02:34:07.265Z,13.07
2019-03-26T02:36:38.430Z,13.23
2019-03-26T02:39:09.574Z,13.70
2019-03-26T02:41:40.746Z,13.60
2019-03-26T02:44:11.906Z,14.73
2019-03-26T02:46:44.145Z,14.50
2019-03-26T02:49:15.293Z,14.43
2019-03-26T02:51:46.459Z,13.73
2019-03-26T02:54:17.607Z,12.73
2019-03-26T02:56:48.860Z,14.67
2019-03-26T02:59:20.001Z,14.20
2019-03-26T03:01:51.210Z,13.67
2019-03-26T03:04:22.350Z,13.20
2019-03-26T03:06:53.538Z,15.03
2019-03-26T03:09:24.619Z,13.70
2019-03-26T03:11:55.846Z,13.37
2019-03-26T03:14:26.997Z,13.90
2019-03-26T03:16:58.085Z,14.00
2019-03-26T03:19:29.248Z,14.33
2019-03-26T03:22:00.424Z,14.30
2019-03-26T03:24:31.565Z,13.90
2019-03-26T03:27:02.793Z,16.30
2019-03-26T03:29:33.941Z,15.33
2019-03-26T03:32:05.090Z,14.53
2019-03-26T03:34:36.234Z,15.50
2019-03-26T03:37:07.397Z,14.87
2019-03-26T03:39:38.609Z,14.47
2019-03-26T03:42:09.813Z,14.53
2019-03-26T03:44:40.962Z,15.03
2019-03-26T03:47:14.909Z,14.70
2019-03-26T03:49:46.386Z,14.93
2019-03-26T03:52:20.209Z,14.37
2019-03-26T03:54:52.494Z,14.73
2019-03-26T03:57:26.326Z,14.20
2019-03-26T04:00:09.080Z,14.27
2019-03-26T04:02:40.253Z,14.30
2019-03-26T04:05:11.403Z,15.20
2019-03-26T04:13:21.983Z,17.00
2019-03-26T04:15:53.094Z,14.90
2019-03-26T04:18:24.257Z,15.33
2019-03-26T04:20:55.388Z,15.47
2019-03-26T04:23:26.482Z,16.27
2019-03-26T04:25:57.650Z,16.27
2019-03-26T04:28:28.875Z,15.37
2019-03-26T04:30:59.945Z,14.60
2019-03-26T04:33:31.121Z,16.07
2019-03-26T04:36:03.252Z,15.70
2019-03-26T04:38:34.410Z,17.27
2019-03-26T04:41:05.548Z,17.43
2019-03-26T04:43:36.625Z,16.83
2019-03-26T04:46:07.709Z,15.70
2019-03-26T04:48:38.881Z,15.90
2019-03-26T04:51:10.026Z,15.70
2019-03-26T04:53:41.113Z,16.80
2019-03-26T04:56:12.257Z,16.77
2019-03-26T04:58:44.074Z,17.77
2019-03-26T05:01:15.276Z,16.00
2019-03-26T05:03:46.379Z,16.50
2019-03-26T05:06:17.546Z,17.80
2019-03-26T05:08:48.694Z,17.90
2019-03-26T05:11:19.756Z,16.63
2019-03-26T05:13:50.934Z,16.50
2019-03-26T05:16:22.085Z,17.67
2019-03-26T05:18:53.257Z,17.33
2019-03-26T05:21:24.409Z,16.33
2019-03-26T05:23:55.545Z,19.23
2019-03-26T05:26:26.686Z,18.80
2019-03-26T05:28:57.807Z,20.17
2019-03-26T05:31:28.958Z,18.83
2019-03-26T05:34:00.150Z,18.30
2019-03-26T05:36:31.300Z,18.50
2019-03-26T05:39:02.544Z,18.30
2019-03-26T05:41:33.633Z,17.10
2019-03-26T05:44:04.890Z,18.80
2019-03-26T05:46:36.025Z,16.93
2019-03-26T05:49:07.270Z,18.60
2019-03-26T05:51:38.355Z,21.40
2019-03-26T05:54:09.645Z,18.03
2019-03-26T05:56:40.778Z,19.00
2019-03-26T05:59:11.961Z,16.63
2019-03-26T06:01:43.196Z,16.47
2019-03-26T06:04:14.364Z,17.70
2019-03-26T06:06:45.512Z,16.30
2019-03-26T06:09:16.622Z,18.10
2019-03-26T06:11:47.769Z,17.70
2019-03-26T06:14:18.937Z,16.83
2019-03-26T06:16:50.074Z,18.43
2019-03-26T06:19:21.325Z,17.73
2019-03-26T06:21:52.439Z,18.07
2019-03-26T06:24:23.622Z,17.57
2019-03-26T06:26:54.770Z,16.80
2019-03-26T06:29:25.930Z,18.30
2019-03-26T06:31:57.140Z,17.70
2019-03-26T06:34:28.333Z,19.23
2019-03-26T06:36:59.418Z,19.37
2019-03-26T06:39:30.590Z,18.70
2019-03-26T06:42:01.737Z,17.57
2019-03-26T06:44:32.924Z,18.40
2019-03-26T06:47:04.090Z,17.87
2019-03-26T06:49:35.202Z,17.30
2019-03-26T06:52:06.450Z,17.00
2019-03-26T06:54:37.583Z,17.30
2019-03-26T06:57:08.733Z,16.47
2019-03-26T06:59:39.909Z,17.53
2019-03-26T07:02:11.491Z,18.73
2019-03-26T07:04:47.267Z,17.40
2019-03-26T07:07:30.486Z,18.47
2019-03-26T07:09:51.254Z,18.80
2019-03-26T07:12:22.384Z,17.47
2019-03-26T07:14:53.548Z,18.17
2019-03-26T07:17:24.692Z,18.30
2019-03-26T07:19:55.878Z,16.97
2019-03-26T07:22:28.077Z,17.50
2019-03-26T07:24:59.247Z,17.77
2019-03-26T07:27:30.520Z,17.47
2019-03-26T07:30:01.640Z,16.97
2019-03-26T07:32:32.782Z,17.80
2019-03-26T07:35:04.012Z,17.57
2019-03-26T07:37:44.928Z,16.40
2019-03-26T07:40:08.429Z,18.27
2019-03-26T07:42:39.653Z,18.47
2019-03-26T07:45:12.065Z,16.40
2019-03-26T07:47:43.282Z,18.27
2019-03-26T07:50:14.438Z,17.40
2019-03-26T07:52:45.584Z,17.50
2019-03-26T07:55:16.748Z,17.40
2019-03-26T07:57:47.901Z,16.00
2019-03-26T08:00:22.560Z,15.13
2019-03-26T08:02:53.641Z,16.87
2019-03-26T08:05:29.701Z,15.33
2019-03-26T08:07:58.748Z,16.00
2019-03-26T08:10:30.133Z,15.40
2019-03-26T08:13:01.224Z,15.77
2019-03-26T08:15:32.447Z,16.10
2019-03-26T08:18:03.562Z,15.43
2019-03-26T08:20:34.749Z,16.40
2019-03-26T08:23:05.821Z,17.60
2019-03-26T08:25:37.009Z,16.67
2019-03-26T08:28:08.072Z,16.07
2019-03-26T08:30:39.181Z,16.50
2019-03-26T08:33:10.332Z,14.57
2019-03-26T08:35:41.518Z,16.67
2019-03-26T08:38:13.506Z,14.43
2019-03-26T08:40:44.918Z,15.17
2019-03-26T08:43:16.052Z,15.93
2019-03-26T08:45:47.252Z,16.17
2019-03-26T08:48:18.357Z,17.00
2019-03-26T08:50:49.453Z,17.03
2019-03-26T08:53:20.607Z,16.00
2019-03-26T08:55:51.793Z,15.23
2019-03-26T08:58:22.845Z,15.33
2019-03-26T09:00:53.962Z,15.27
2019-03-26T09:03:25.109Z,17.23
2019-03-26T09:05:56.216Z,15.07
2019-03-26T09:08:27.375Z,14.10
2019-03-26T09:10:58.555Z,15.97
2019-03-26T09:13:29.701Z,14.93
2019-03-26T09:16:00.790Z,14.70
2019-03-26T09:18:31.930Z,15.20
2019-03-26T09:21:03.102Z,14.57
2019-03-26T09:23:34.330Z,14.80
2019-03-26T09:26:05.479Z,15.93
2019-03-26T09:28:36.621Z,15.33
2019-03-26T09:31:07.756Z,14.50
2019-03-26T09:33:38.917Z,15.07
2019-03-26T09:36:10.060Z,14.80
2019-03-26T09:38:41.252Z,14.57
2019-03-26T09:41:12.385Z,13.80
2019-03-26T09:43:43.571Z,13.80
2019-03-26T09:46:14.698Z,13.27
2019-03-26T09:48:45.854Z,12.40
2019-03-26T09:51:16.994Z,12.20
2019-03-26T09:53:48.158Z,12.13
2019-03-26T09:56:29.166Z,12.80
2019-03-26T09:58:52.080Z,12.40
2019-03-26T10:01:23.224Z,12.20
2019-03-26T10:03:54.388Z,11.90
2019-03-26T10:06:25.542Z,11.37
2019-03-26T10:08:56.794Z,11.03
2019-03-26T10:11:28.027Z,11.27
2019-03-26T10:13:59.294Z,9.70
2019-03-26T10:16:30.441Z,11.30
2019-03-26T10:19:01.614Z,9.37
2019-03-26T10:21:32.773Z,9.13
2019-03-26T10:24:03.869Z,8.20
2019-03-26T10:26:36.173Z,8.23
2019-03-26T10:29:23.970Z,8.67
2019-03-26T10:31:40.130Z,8.83
2019-03-26T10:34:11.292Z,9.93
2019-03-26T10:36:42.620Z,10.40
2019-03-26T10:39:13.813Z,9.37
2019-03-26T10:41:44.976Z,8.90
2019-03-26T10:44:16.116Z,10.00
2019-03-26T10:46:47.203Z,9.70
2019-03-26T10:49:18.372Z,8.40
2019-03-26T10:51:49.498Z,8.60
2019-03-26T10:54:20.666Z,8.73
2019-03-26T10:56:51.840Z,10.40
2019-03-26T10:59:22.982Z,9.53
2019-03-26T11:01:54.062Z,9.17
2019-03-26T11:04:25.322Z,9.10
2019-03-26T11:06:56.454Z,9.30
2019-03-26T11:09:27.625Z,8.50
2019-03-26T11:11:58.740Z,8.47
2019-03-26T11:14:31.761Z,8.53
2019-03-26T11:17:02.701Z,8.30
2019-03-26T11:19:33.877Z,8.43
2019-03-26T11:22:05.033Z,7.60
2019-03-26T11:24:36.277Z,6.80
2019-03-26T11:27:07.347Z,6.17
2019-03-26T11:29:38.544Z,7.00
2019-03-26T11:32:09.669Z,6.20
2019-03-26T11:34:40.911Z,7.33
2019-03-26T11:37:12.120Z,7.33
2019-03-26T11:39:43.202Z,6.20
2019-03-26T11:42:14.364Z,7.20
2019-03-26T11:44:45.546Z,6.90
2019-03-26T11:47:16.692Z,6.40
2019-03-26T11:49:47.874Z,6.13
2019-03-26T11:52:19.010Z,6.03
2019-03-26T11:54:50.174Z,6.97
2019-03-26T11:57:21.297Z,7.33
2019-03-26T11:59:52.376Z,7.47
2019-03-26T12:02:23.579Z,7.20
2019-03-26T12:04:54.822Z,7.27
2019-03-26T12:07:25.875Z,8.17
2019-03-26T12:09:57.026Z,8.20
2019-03-26T12:12:28.165Z,9.10
2019-03-26T12:14:59.309Z,8.20
2019-03-26T12:17:30.357Z,8.10
2019-03-26T12:20:02.655Z,9.20
2019-03-26T12:22:33.797Z,8.30
2019-03-26T12:25:05.341Z,8.10
2019-03-26T12:27:36.981Z,8.87
2019-03-26T12:30:08.726Z,7.70
2019-03-26T12:32:41.092Z,7.57
2019-03-26T12:35:17.802Z,6.80
2019-03-26T12:37:49.043Z,7.03
2019-03-26T12:40:20.240Z,6.17
2019-03-26T12:42:51.365Z,5.60
2019-03-26T12:45:22.525Z,7.13
2019-03-26T12:47:53.668Z,6.93
2019-03-26T12:50:24.828Z,7.50
2019-03-26T12:52:55.918Z,7.23
2019-03-26T12:55:27.164Z,6.40
2019-03-26T12:57:58.394Z,6.30
2019-03-26T13:00:33.419Z,6.63
2019-03-26T13:03:04.621Z,6.30
2019-03-26T13:05:35.778Z,6.33
2019-03-26T13:08:06.912Z,5.80
2019-03-26T13:10:38.148Z,5.30
2019-03-26T13:13:09.365Z,6.27
2019-03-26T13:15:40.474Z,5.87
2019-03-26T13:18:11.705Z,6.30
2019-03-26T13:20:42.953Z,5.90
2019-03-26T13:23:14.076Z,6.13
2019-03-26T13:25:45.345Z,6.00
2019-03-26T13:28:16.434Z,5.40
2019-03-26T13:30:47.586Z,6.13
2019-03-26T13:33:18.713Z,5.60
2019-03-26T13:35:49.893Z,5.50
2019-03-26T13:38:21.027Z,6.17
2019-03-26T13:40:53.353Z,5.07
2019-03-26T13:43:24.490Z,5.27
2019-03-26T13:45:55.560Z,5.43
2019-03-26T13:48:26.694Z,4.80
2019-03-26T13:50:57.854Z,5.57
2019-03-26T13:53:28.985Z,4.80
2019-03-26T13:56:00.135Z,4.67
2019-03-26T13:58:31.296Z,5.23
2019-03-26T14:01:02.459Z,5.23
2019-03-26T14:03:33.518Z,5.20
2019-03-26T14:06:04.673Z,5.13
2019-03-26T14:08:35.765Z,4.67
2019-03-26T14:11:07.346Z,4.97
2019-03-26T14:13:38.560Z,5.50
2019-03-26T14:16:09.725Z,5.17
2019-03-26T14:18:40.857Z,5.50
2019-03-26T14:21:12.021Z,6.10
2019-03-26T14:23:43.099Z,6.27
2019-03-26T14:26:14.253Z,5.80
2019-03-26T14:28:45.457Z,7.40
2019-03-26T14:31:16.599Z,7.40
2019-03-26T14:33:47.730Z,8.27
2019-03-26T14:36:18.984Z,9.17
2019-03-26T14:38:50.129Z,7.60
2019-03-26T14:41:21.293Z,9.40
2019-03-26T14:43:52.451Z,7.73
2019-03-26T14:46:23.621Z,6.53
2019-03-26T14:48:54.766Z,7.83
2019-03-26T14:51:25.946Z,6.67
2019-03-26T14:53:57.081Z,7.60
2019-03-26T14:56:28.255Z,6.57
2019-03-26T14:58:59.392Z,7.27
2019-03-26T15:01:30.585Z,7.80
2019-03-26T15:04:01.805Z,8.60
2019-03-26T15:06:33.045Z,8.30
2019-03-26T15:09:05.874Z,9.20
2019-03-26T15:11:37.218Z,9.13
2019-03-26T15:14:08.302Z,9.33
2019-03-26T15:16:39.445Z,9.17
2019-03-26T15:19:10.610Z,9.10
2019-03-26T15:21:42.015Z,8.93
2019-03-26T15:24:13.137Z,9.60
2019-03-26T15:26:44.367Z,9.17
2019-03-26T15:29:15.538Z,9.00
2019-03-26T15:31:47.749Z,9.10
2019-03-26T15:34:18.851Z,9.00
2019-03-26T15:36:49.985Z,9.67
2019-03-26T15:39:21.057Z,10.00
2019-03-26T15:41:52.135Z,10.67
2019-03-26T15:44:23.292Z,10.63
2019-03-26T15:46:54.373Z,10.20
2019-03-26T15:49:25.521Z,8.67
2019-03-26T15:51:56.585Z,8.43
2019-03-26T15:54:27.664Z,8.43
2019-03-26T15:56:58.792Z,7.63
2019-03-26T15:59:29.952Z,8.03
2019-03-26T16:02:01.155Z,8.30
2019-03-26T16:04:32.348Z,8.07
2019-03-26T16:07:03.609Z,9.80
2019-03-26T16:09:34.757Z,10.20
2019-03-26T16:12:05.880Z,10.30
2019-03-26T16:14:36.992Z,9.77
2019-03-26T16:17:08.130Z,9.57
2019-03-26T16:19:39.208Z,10.73
2019-03-26T16:22:11.207Z,11.00
2019-03-26T16:24:42.369Z,10.57
2019-03-26T16:27:13.502Z,11.07
2019-03-26T16:29:44.679Z,10.73
2019-03-26T16:32:15.829Z,10.83
2019-03-26T16:34:46.910Z,11.07
2019-03-26T16:37:18.121Z,12.60
2019-03-26T16:39:50.595Z,16.97
2019-03-26T16:42:21.906Z,13.40
2019-03-26T16:44:53.066Z,19.43
2019-03-26T16:47:25.128Z,15.47
2019-03-26T16:49:56.583Z,13.37
2019-03-26T16:52:27.720Z,14.37
2019-03-26T16:54:59.009Z,13.30
2019-03-26T16:57:30.158Z,12.53
2019-03-26T17:00:01.381Z,11.40
2019-03-26T17:02:33.618Z,11.97
2019-03-26T17:05:05.054Z,12.70
2019-03-26T17:07:36.721Z,13.10
2019-03-26T17:10:09.411Z,14.83
2019-03-26T17:12:40.575Z,13.17
2019-03-26T17:15:11.795Z,13.67
2019-03-26T17:17:42.987Z,12.43
2019-03-26T17:20:14.197Z,12.83
2019-03-26T17:22:45.423Z,12.87
2019-03-26T17:25:19.671Z,12.37
2019-03-26T17:27:51.160Z,12.10
2019-03-26T17:30:22.752Z,12.67
2019-03-26T17:32:53.910Z,11.80
2019-03-26T17:35:25.108Z,14.10
2019-03-26T17:38:00.094Z,20.63
2019-03-26T17:40:29.206Z,84.97
2019-03-26T17:43:00.273Z,17.70
2019-03-26T17:45:31.366Z,11.80
2019-03-26T17:48:02.556Z,11.47
2019-03-26T17:50:33.714Z,11.23
2019-03-26T17:53:04.846Z,12.00
2019-03-26T17:55:36.078Z,10.53
2019-03-26T17:58:08.485Z,10.40
2019-03-26T18:00:42.949Z,10.10
2019-03-26T18:03:25.722Z,10.60
2019-03-26T18:05:47.384Z,9.60
2019-03-26T18:08:18.527Z,9.23
2019-03-26T18:10:49.729Z,10.50
2019-03-26T18:13:21.192Z,8.87
2019-03-26T18:15:52.375Z,9.37
2019-03-26T18:18:23.514Z,14.53
2019-03-26T18:20:54.667Z,15.07
2019-03-26T18:23:25.806Z,22.30
2019-03-26T18:25:56.981Z,25.37
2019-03-26T18:28:28.121Z,14.10
2019-03-26T18:30:59.321Z,11.83
2019-03-26T18:33:30.392Z,10.20
2019-03-26T18:36:01.574Z,12.37
2019-03-26T18:38:32.709Z,11.70
2019-03-26T18:41:03.928Z,15.33
2019-03-26T18:43:35.140Z,16.53
2019-03-26T18:46:06.221Z,13.47
2019-03-26T18:48:37.363Z,11.60
2019-03-26T18:51:08.551Z,12.10
2019-03-26T18:53:39.709Z,11.87
2019-03-26T18:56:10.955Z,11.23
2019-03-26T18:58:42.326Z,10.43
2019-03-26T19:01:13.505Z,11.33
2019-03-26T19:03:44.647Z,11.47
2019-03-26T19:06:15.809Z,13.50
2019-03-26T19:08:46.921Z,18.07
2019-03-26T19:11:18.037Z,13.30
2019-03-26T19:13:49.253Z,13.63
2019-03-26T19:16:20.439Z,14.30
2019-03-26T19:18:51.634Z,13.77
2019-03-26T19:21:23.233Z,14.20
2019-03-26T19:24:04.003Z,21.97
2019-03-26T19:26:27.169Z,16.53
2019-03-26T19:28:58.406Z,21.07
2019-03-26T19:31:29.572Z,14.93
2019-03-26T19:34:00.704Z,13.90
2019-03-26T19:36:31.789Z,13.00
2019-03-26T19:39:06.445Z,13.53
2019-03-26T19:41:36.609Z,11.40
2019-03-26T19:44:07.668Z,10.90
2019-03-26T19:46:38.771Z,11.97
2019-03-26T19:49:09.909Z,11.17
2019-03-26T19:51:40.993Z,12.37
2019-03-26T19:54:12.055Z,12.10
2019-03-26T19:56:43.142Z,10.90
2019-03-26T19:59:14.217Z,11.57
2019-03-26T20:01:45.562Z,12.00
2019-03-26T20:04:16.854Z,10.87
2019-03-26T20:06:48.659Z,10.17
2019-03-26T20:09:19.866Z,9.80
2019-03-26T20:11:51.038Z,11.63
2019-03-26T20:14:22.193Z,10.63
2019-03-26T20:16:53.357Z,15.03
2019-03-26T20:19:24.794Z,16.23
2019-03-26T20:21:56.200Z,17.00
2019-03-26T20:24:27.357Z,15.10
2019-03-26T20:26:58.583Z,15.97
2019-03-26T20:29:29.734Z,15.83
2019-03-26T20:32:00.902Z,15.10
2019-03-26T20:34:32.165Z,14.90
2019-03-26T20:37:03.396Z,15.13
2019-03-26T20:39:34.656Z,16.17
2019-03-26T20:42:05.859Z,16.00
2019-03-26T20:44:36.997Z,15.43
2019-03-26T20:47:08.237Z,16.63
2019-03-26T20:49:39.305Z,17.23
2019-03-26T20:52:10.462Z,14.53
2019-03-26T20:54:41.617Z,17.80
2019-03-26T20:57:12.967Z,17.53
2019-03-26T20:59:44.104Z,17.00
2019-03-26T21:02:15.389Z,16.43
2019-03-26T21:04:46.457Z,15.00
2019-03-26T21:07:18.806Z,15.50
2019-03-26T21:09:49.951Z,15.33
2019-03-26T21:12:21.117Z,14.00
2019-03-26T21:14:52.269Z,13.20
2019-03-26T21:17:23.365Z,12.47
2019-03-26T21:19:54.511Z,11.87
2019-03-26T21:22:25.680Z,13.93
2019-03-26T21:24:57.903Z,14.40
2019-03-26T21:27:29.101Z,12.93
2019-03-26T21:30:10.106Z,13.97
2019-03-26T21:32:33.181Z,13.00
2019-03-26T21:35:04.420Z,11.80
2019-03-26T21:37:35.581Z,13.67
2019-03-26T21:40:07.307Z,17.13
2019-03-26T21:42:38.464Z,13.83
2019-03-26T21:45:10.058Z,14.30
2019-03-26T21:47:41.494Z,12.90
2019-03-26T21:50:12.777Z,11.87
2019-03-26T21:52:43.928Z,11.63
2019-03-26T21:55:15.602Z,12.90
2019-03-26T21:57:46.685Z,11.90
2019-03-26T22:00:18.035Z,13.80
2019-03-26T22:02:49.208Z,12.47
2019-03-26T22:05:20.274Z,15.00
2019-03-26T22:07:51.358Z,15.73
2019-03-26T22:10:22.504Z,11.77
2019-03-26T22:12:53.652Z,12.13
2019-03-26T22:15:24.725Z,14.30
2019-03-26T22:17:55.894Z,14.00
2019-03-26T22:20:27.037Z,17.67
2019-03-26T22:22:58.521Z,14.60
2019-03-26T22:25:29.621Z,12.50
2019-03-26T22:28:00.789Z,11.97
2019-03-26T22:30:31.927Z,13.00
2019-03-26T22:33:03.107Z,12.90
2019-03-26T22:35:34.250Z,11.87
2019-03-26T22:38:05.421Z,14.70
2019-03-26T22:40:36.552Z,14.33
2019-03-26T22:43:07.640Z,12.40
2019-03-26T22:45:38.771Z,12.33
2019-03-26T22:48:09.954Z,12.20
2019-03-26T22:50:41.096Z,10.70
2019-03-26T22:53:12.257Z,11.07
2019-03-26T22:55:43.492Z,12.40
2019-03-26T22:58:14.666Z,10.80
2019-03-26T23:00:46.193Z,12.60
2019-03-26T23:03:19.049Z,11.83
2019-03-26T23:05:50.113Z,11.80
2019-03-26T23:08:22.276Z,11.13
2019-03-26T23:10:53.497Z,11.33
2019-03-26T23:13:24.590Z,12.27
2019-03-26T23:15:55.911Z,11.20
2019-03-26T23:18:27.072Z,11.30
2019-03-26T23:20:58.158Z,10.97
2019-03-26T23:23:29.339Z,11.50
2019-03-26T23:26:00.474Z,13.13
2019-03-26T23:28:31.574Z,13.97
2019-03-26T23:31:02.811Z,14.43
2019-03-26T23:33:33.954Z,12.87
2019-03-26T23:36:05.058Z,12.37
2019-03-26T23:38:36.377Z,12.00
2019-03-26T23:41:07.532Z,12.53
2019-03-26T23:43:38.689Z,12.03
2019-03-26T23:46:09.830Z,11.80
2019-03-26T23:48:41.002Z,11.77
2019-03-26T23:51:12.082Z,12.30
2019-03-26T23:53:44.126Z,11.10
2019-03-26T23:56:15.264Z,12.20
2019-03-26T23:58:46.434Z,10.60
